Time;durP1;ratioP1;P1;durP2;ratioP2;P2;SDS_P1;SDS_P2;PMS_P1;PMS_P2;Temp;Humidity;BMP_temperature;BMP_pressure;BME280_temperature;BME280_humidity;BME280_pressure;Samples;Min_cycle;Max_cycle;Signal;HPM_P1;HPM_P2
2022/04/09 00:00:55;;;;;;;4.45;1.60;;;;;;;3.23;100.00;100026.72;4955930;28;20035;-79
2022/04/09 00:03:23;;;;;;;3.85;1.80;;;;;;;3.25;100.00;100032.84;4930941;28;20052;-80
2022/04/09 00:05:51;;;;;;;9.70;1.85;;;;;;;3.26;100.00;100035.47;4941135;29;20043;-81
2022/04/09 00:08:20;;;;;;;10.38;2.00;;;;;;;3.28;100.00;100039.00;4939221;29;20360;-81
2022/04/09 00:10:49;;;;;;;7.00;2.20;;;;;;;3.29;100.00;100032.09;4956300;29;20365;-80
2022/04/09 00:13:19;;;;;;;8.88;2.75;;;;;;;3.31;100.00;100044.28;4936544;28;20550;-80
2022/04/09 00:15:48;;;;;;;8.75;2.13;;;;;;;3.30;100.00;100047.72;4940414;29;20513;-81
2022/04/09 00:18:16;;;;;;;13.45;2.25;;;;;;;3.31;100.00;100048.63;4948675;28;20050;-80
2022/04/09 00:20:45;;;;;;;12.32;2.95;;;;;;;3.30;100.00;100052.91;4958318;28;20043;-81
2022/04/09 00:23:14;;;;;;;14.10;2.30;;;;;;;3.29;100.00;100045.97;4955292;28;21403;-80
2022/04/09 00:25:43;;;;;;;11.88;2.38;;;;;;;3.29;100.00;100047.72;4957553;28;20083;-80
2022/04/09 00:28:11;;;;;;;12.35;2.28;;;;;;;3.29;100.00;100059.00;4942778;28;20054;-80
2022/04/09 00:30:40;;;;;;;7.20;2.38;;;;;;;3.30;100.00;100062.47;4966176;28;20051;-80
2022/04/09 00:33:09;;;;;;;8.55;2.72;;;;;;;3.30;100.00;100067.66;4961593;28;20047;-80
2022/04/09 00:35:37;;;;;;;10.55;2.55;;;;;;;3.32;100.00;100081.59;4957125;28;20240;-80
2022/04/09 00:38:08;;;;;;;11.18;1.90;;;;;;;3.34;100.00;100084.25;4960864;28;20054;-80
2022/04/09 00:40:36;;;;;;;11.23;2.40;;;;;;;3.36;100.00;100095.56;4956795;28;20050;-81
2022/04/09 00:43:05;;;;;;;7.00;1.98;;;;;;;3.37;100.00;100100.81;4964577;28;20058;-80
2022/04/09 00:45:33;;;;;;;5.30;1.95;;;;;;;3.39;100.00;100099.13;4946712;28;20035;-80
2022/04/09 00:48:07;;;;;;;9.73;1.75;;;;;;;3.40;100.00;100100.84;4941287;28;20054;-81
2022/04/09 00:50:36;;;;;;;4.30;1.88;;;;;;;3.41;100.00;100100.03;4942098;28;20054;-80
2022/04/09 00:53:07;;;;;;;7.07;1.55;;;;;;;3.40;100.00;100105.19;4953641;28;20048;-79
2022/04/09 00:58:25;;;;;;;7.97;1.90;;;;;;;3.38;100.00;100105.16;4959364;28;20384;-80
2022/04/09 01:00:53;;;;;;;11.05;2.47;;;;;;;3.37;100.00;100110.34;4946492;28;20054;-81
2022/04/09 01:03:22;;;;;;;5.78;1.58;;;;;;;3.36;100.00;100119.88;4974961;23;20550;-77
2022/04/09 01:05:50;;;;;;;4.85;1.58;;;;;;;3.35;100.00;100112.94;4932224;28;20043;-77
2022/04/09 01:08:19;;;;;;;6.30;1.80;;;;;;;3.32;100.00;100121.53;4962698;28;20624;-77
2022/04/09 01:10:51;;;;;;;4.65;1.50;;;;;;;3.34;100.00;100121.56;4965953;28;20054;-77
2022/04/09 01:13:24;;;;;;;12.98;1.95;;;;;;;3.34;100.00;100123.31;4961468;28;20324;-77
2022/04/09 01:15:53;;;;;;;7.85;1.73;;;;;;;3.34;100.00;100133.72;4938475;28;20038;-77
2022/04/09 01:18:23;;;;;;;7.78;1.75;;;;;;;3.35;100.00;100140.69;4944570;28;20043;-77
2022/04/09 01:21:00;;;;;;;8.75;1.83;;;;;;;3.36;100.00;100138.09;4941218;28;20496;-77
2022/04/09 01:23:31;;;;;;;5.13;1.73;;;;;;;3.37;100.00;100145.09;4964689;28;20499;-77
2022/04/09 01:26:05;;;;;;;8.15;1.73;;;;;;;3.40;100.00;100158.16;4977974;28;20483;-77
2022/04/09 01:28:37;;;;;;;9.93;2.38;;;;;;;3.44;100.00;100153.88;4961796;28;20048;-77
2022/04/09 01:31:06;;;;;;;7.95;2.08;;;;;;;3.48;100.00;100167.03;4944546;28;20057;-77
2022/04/09 01:33:34;;;;;;;7.20;1.73;;;;;;;3.51;100.00;100166.19;4967370;28;20051;-77
2022/04/09 01:36:03;;;;;;;8.90;2.13;;;;;;;3.51;100.00;100169.69;4963537;28;20042;-77
2022/04/09 01:38:34;;;;;;;9.55;1.92;;;;;;;3.51;100.00;100172.28;4965502;28;20050;-77
2022/04/09 01:41:03;;;;;;;8.27;1.98;;;;;;;3.51;100.00;100177.50;4962703;28;20043;-77
2022/04/09 01:43:40;;;;;;;8.35;1.45;;;;;;;3.48;100.00;100167.03;4965220;28;20035;-77
2022/04/09 01:46:09;;;;;;;8.48;1.40;;;;;;;3.46;100.00;100160.91;4945415;28;20256;-77
2022/04/09 01:48:41;;;;;;;9.23;1.73;;;;;;;3.48;100.00;100174.84;4968933;28;20047;-77
2022/04/09 01:51:09;;;;;;;7.35;1.70;;;;;;;3.52;100.00;100188.81;4929122;28;20261;-77
2022/04/09 01:53:38;;;;;;;6.18;1.70;;;;;;;3.54;100.00;100202.75;4949998;28;20046;-77
2022/04/09 01:56:07;;;;;;;6.18;1.45;;;;;;;3.53;100.00;100200.97;4962016;28;20034;-77
2022/04/09 01:58:39;;;;;;;6.40;1.60;;;;;;;3.52;100.00;100188.81;4964494;28;20061;-77
2022/04/09 02:01:07;;;;;;;4.78;1.73;;;;;;;3.47;100.00;100193.91;4935580;28;21470;-77
2022/04/09 02:03:36;;;;;;;7.05;1.80;;;;;;;3.43;100.00;100194.69;4946250;28;20082;-77
2022/04/09 02:06:04;;;;;;;6.25;1.80;;;;;;;3.41;100.00;100204.22;4936504;28;20040;-77
2022/04/09 02:08:34;;;;;;;5.57;1.77;;;;;;;3.37;100.00;100206.72;4954243;28;20051;-77
2022/04/09 02:11:05;;;;;;;6.72;1.63;;;;;;;3.35;100.00;100218.84;4961816;28;20054;-77
2022/04/09 02:13:35;;;;;;;11.20;2.83;;;;;;;3.31;100.00;100223.97;4970266;28;20062;-78
2022/04/09 02:16:06;;;;;;;7.22;2.15;;;;;;;3.28;100.00;100223.00;4942309;28;20051;-77
2022/04/09 02:18:34;;;;;;;3.95;1.45;;;;;;;3.26;100.00;100232.50;4934650;28;20055;-77
2022/04/09 02:21:02;;;;;;;4.78;2.35;;;;;;;3.22;100.00;100228.09;4960710;28;20043;-77
2022/04/09 02:23:32;;;;;;;6.20;1.75;;;;;;;3.19;100.00;100233.22;4934824;28;20054;-77
2022/04/09 02:26:01;;;;;;;6.90;1.73;;;;;;;3.14;100.00;100233.13;4942778;28;20032;-78
2022/04/09 02:28:31;;;;;;;13.13;2.38;;;;;;;3.11;100.00;100236.50;4942746;28;20043;-78
2022/04/09 02:31:00;;;;;;;7.97;1.75;;;;;;;3.08;100.00;100241.66;4963663;28;20111;-78
2022/04/09 02:33:35;;;;;;;6.53;2.15;;;;;;;3.05;100.00;100248.50;4938005;28;20409;-78
2022/04/09 02:36:05;;;;;;;5.90;1.98;;;;;;;3.01;100.00;100255.38;4941886;28;20067;-78
2022/04/09 02:38:35;;;;;;;;;;;;;;;2.97;100.00;100255.25;4943963;28;20051;-77
2022/04/09 02:41:04;;;;;;;7.68;1.85;;;;;;;2.93;100.00;100254.31;4956449;28;19929;-78
2022/04/09 02:43:33;;;;;;;2.78;1.45;;;;;;;2.90;100.00;100259.44;4971573;28;20047;-78
2022/04/09 02:46:02;;;;;;;4.45;1.30;;;;;;;2.90;100.00;100259.44;4951723;28;20043;-78
2022/04/09 02:48:34;;;;;;;7.53;1.67;;;;;;;2.87;100.00;100252.44;4953263;28;20378;-78
2022/04/09 02:51:03;;;;;;;6.40;1.70;;;;;;;2.86;100.00;100262.81;4953211;28;20053;-78
2022/04/09 02:53:31;;;;;;;12.50;2.08;;;;;;;2.85;100.00;100261.91;4953268;28;20484;-78
2022/04/09 02:56:01;;;;;;;8.07;1.75;;;;;;;2.83;100.00;100267.91;4941557;28;20040;-78
2022/04/09 02:58:33;;;;;;;12.02;1.70;;;;;;;2.81;100.00;100272.22;4979881;28;20055;-78
2022/04/09 03:01:02;;;;;;;7.22;1.52;;;;;;;2.79;100.00;100274.75;4964078;28;20039;-78
2022/04/09 03:03:31;;;;;;;7.20;1.60;;;;;;;2.77;100.00;100276.44;4939378;28;20057;-77
2022/04/09 03:05:59;;;;;;;19.02;2.10;;;;;;;2.77;100.00;100275.56;4982078;28;20050;-77
2022/04/09 03:08:28;;;;;;;10.25;2.03;;;;;;;2.74;100.00;100273.75;4957896;28;20639;-77
2022/04/09 03:10:56;;;;;;;6.25;1.88;;;;;;;2.74;100.00;100278.97;4967134;28;20039;-77
2022/04/09 03:13:25;;;;;;;8.18;2.38;;;;;;;2.74;100.00;100278.97;4949731;28;20047;-77
2022/04/09 03:15:53;;;;;;;9.02;2.30;;;;;;;2.75;100.00;100285.06;4950315;28;20051;-77
2022/04/09 03:18:22;;;;;;;7.90;1.95;;;;;;;2.73;100.00;100287.63;4962447;28;20254;-77
2022/04/09 03:20:52;;;;;;;12.15;3.17;;;;;;;2.73;100.00;100283.28;4953148;28;20046;-77
2022/04/09 03:23:22;;;;;;;8.02;2.20;;;;;;;2.78;100.00;100309.44;4931658;29;20735;-77
2022/04/09 03:25:58;;;;;;;7.82;2.63;;;;;;;2.81;100.00;100308.63;4940756;28;20046;-77
2022/04/09 03:28:35;;;;;;;9.52;2.13;;;;;;;2.84;100.00;100300.91;4944284;28;20039;-77
2022/04/09 03:31:04;;;;;;;13.48;2.80;;;;;;;2.88;100.00;100302.75;4962773;28;20455;-77
2022/04/09 03:33:35;;;;;;;12.43;2.58;;;;;;;2.90;100.00;100301.94;4968227;28;20043;-77
2022/04/09 03:36:09;;;;;;;12.18;2.45;;;;;;;2.90;100.00;100309.75;4937228;28;20561;-77
2022/04/09 03:38:40;;;;;;;10.57;2.55;;;;;;;2.91;100.00;100313.22;4964058;28;20599;-78
2022/04/09 03:41:09;;;;;;;10.60;2.15;;;;;;;2.88;100.00;100316.63;4948758;28;20272;-78
2022/04/09 03:44:00;;;;;;;6.38;2.30;;;;;;;2.88;100.00;100323.56;4963284;28;20526;-77
2022/04/09 03:46:33;;;;;;;15.27;2.95;;;;;;;2.87;100.00;100307.09;4968095;28;20034;-78
2022/04/09 03:49:07;;;;;;;15.32;2.25;;;;;;;2.86;100.00;100320.06;4932780;28;20400;-77
2022/04/09 03:51:38;;;;;;;12.77;2.88;;;;;;;2.83;100.00;100322.56;4965491;28;20043;-78
2022/04/09 03:54:08;;;;;;;9.85;2.58;;;;;;;2.82;100.00;100331.22;4945301;28;20288;-77
2022/04/09 03:56:40;;;;;;;11.65;2.03;;;;;;;2.79;100.00;100333.75;4941457;28;20519;-78
2022/04/09 03:59:11;;;;;;;13.52;2.30;;;;;;;2.76;100.00;100329.34;4932401;28;20051;-77
2022/04/09 04:01:46;;;;;;;13.40;2.10;;;;;;;2.74;100.00;100336.19;4966837;28;20049;-77
2022/04/09 04:04:16;;;;;;;9.85;2.55;;;;;;;2.74;100.00;100341.41;4938498;28;20798;-77
2022/04/09 04:06:48;;;;;;;7.55;2.35;;;;;;;2.72;100.00;100333.59;4983119;28;20046;-77
2022/04/09 04:09:17;;;;;;;11.20;2.92;;;;;;;2.71;100.00;100342.22;4979210;28;20047;-78
2022/04/09 04:11:50;;;;;;;10.10;2.70;;;;;;;2.69;100.00;100340.44;4956168;28;20047;-78
2022/04/09 04:14:20;;;;;;;9.30;2.10;;;;;;;2.68;100.00;100338.66;4941962;28;20257;-77
2022/04/09 04:16:48;;;;;;;6.93;2.08;;;;;;;2.68;100.00;100346.44;4966054;28;20050;-77
2022/04/09 04:19:16;;;;;;;7.20;2.50;;;;;;;2.69;100.00;100353.44;4961625;28;20288;-77
2022/04/09 04:21:47;;;;;;;9.40;1.80;;;;;;;2.69;100.00;100353.44;4927960;28;20059;-77
2022/04/09 04:24:16;;;;;;;9.25;1.83;;;;;;;2.70;100.00;100355.19;4929187;28;20062;-77
2022/04/09 04:26:45;;;;;;;5.20;1.77;;;;;;;2.71;100.00;100368.25;4941275;28;20035;-78
2022/04/09 04:29:22;;;;;;;13.23;2.00;;;;;;;2.72;100.00;100375.22;4941635;28;20035;-77
2022/04/09 04:31:51;;;;;;;6.38;1.73;;;;;;;2.73;100.00;100379.56;4951230;28;20510;-76
2022/04/09 04:34:20;;;;;;;10.80;2.45;;;;;;;2.76;100.00;100380.47;4964623;28;20161;-78
2022/04/09 04:36:49;;;;;;;7.35;1.75;;;;;;;2.78;100.00;100389.22;4935909;28;20035;-77
2022/04/09 04:39:19;;;;;;;11.73;2.15;;;;;;;2.79;100.00;100389.25;4945223;28;20266;-77
2022/04/09 04:41:51;;;;;;;12.60;2.33;;;;;;;2.79;100.00;100394.47;4934784;28;20396;-76
2022/04/09 04:44:21;;;;;;;13.30;3.27;;;;;;;2.81;100.00;100390.19;4960047;28;20674;-78
2022/04/09 04:46:53;;;;;;;12.40;2.30;;;;;;;2.81;100.00;100394.50;4960448;28;20039;-77
2022/04/09 04:49:24;;;;;;;9.23;2.47;;;;;;;2.78;100.00;100397.03;4960678;28;20691;-77
2022/04/09 04:52:00;;;;;;;10.90;2.80;;;;;;;2.73;100.00;100400.38;4929949;28;20062;-79
2022/04/09 04:54:31;;;;;;;9.68;2.58;;;;;;;2.70;100.00;100400.31;4957896;28;20034;-76
2022/04/09 04:56:59;;;;;;;13.23;2.42;;;;;;;2.72;100.00;100410.75;4961276;28;20050;-78
2022/04/09 04:59:28;;;;;;;6.25;3.03;;;;;;;2.72;100.00;100406.44;4948280;28;20530;-78
2022/04/09 05:01:57;;;;;;;8.82;2.10;;;;;;;2.73;100.00;100408.19;4958019;28;20044;-77
2022/04/09 05:04:26;;;;;;;7.22;2.03;;;;;;;2.76;100.00;100411.72;4930374;29;20375;-78
2022/04/09 05:07:02;;;;;;;11.85;2.10;;;;;;;2.77;100.00;100416.09;4942938;28;20049;-78
2022/04/09 05:09:31;;;;;;;13.70;2.50;;;;;;;2.77;100.00;100413.50;4932526;29;20553;-77
2022/04/09 05:12:00;;;;;;;10.55;2.53;;;;;;;2.79;100.00;100411.81;4961486;28;20058;-79
2022/04/09 05:14:38;;;;;;;12.40;2.15;;;;;;;2.81;100.00;100423.13;4936718;28;20047;-78
2022/04/09 05:17:12;;;;;;;9.23;1.95;;;;;;;2.85;100.00;100431.06;4955251;28;20039;-77
2022/04/09 05:19:41;;;;;;;8.88;2.17;;;;;;;2.88;100.00;100441.56;4967331;28;20047;-78
2022/04/09 05:22:13;;;;;;;13.85;2.38;;;;;;;2.94;100.00;100440.84;4914494;28;22111;-77
2022/04/09 05:24:52;;;;;;;12.90;1.95;;;;;;;2.93;100.00;100439.97;4936216;28;20047;-78
2022/04/09 05:27:21;;;;;;;9.75;1.75;;;;;;;2.93;100.00;100442.59;4947119;28;20038;-78
2022/04/09 05:29:50;;;;;;;11.85;2.20;;;;;;;2.94;100.00;100451.25;4944084;28;20039;-77
2022/04/09 05:32:21;;;;;;;;;;;;;;;2.96;100.00;100453.91;4965861;28;20061;-77
2022/04/09 05:34:49;;;;;;;9.48;2.20;;;;;;;2.95;100.00;100453.03;4982086;28;20314;-77
2022/04/09 05:37:19;;;;;;;8.32;2.10;;;;;;;2.97;100.00;100456.56;4934375;28;20261;-77
2022/04/09 05:39:48;;;;;;;6.13;1.98;;;;;;;2.97;100.00;100453.97;4958283;28;20039;-77
2022/04/09 05:42:16;;;;;;;11.20;3.17;;;;;;;3.00;100.00;100460.97;4944979;28;20038;-78
2022/04/09 05:44:45;;;;;;;14.00;2.25;;;;;;;3.05;100.00;100473.25;4926562;28;20055;-77
2022/04/09 05:47:13;;;;;;;7.72;1.90;;;;;;;3.08;100.00;100473.38;4937079;28;20346;-78
2022/04/09 05:49:42;;;;;;;6.95;2.10;;;;;;;3.11;100.00;100478.63;4960927;28;20046;-77
2022/04/09 05:52:11;;;;;;;13.10;2.22;;;;;;;3.17;100.00;100482.25;4944192;28;20269;-77
2022/04/09 05:54:40;;;;;;;7.75;2.22;;;;;;;3.22;100.00;100488.47;4966765;28;20046;-78
2022/04/09 05:57:09;;;;;;;8.82;2.33;;;;;;;3.24;100.00;100485.06;4945032;28;20065;-77
2022/04/09 05:59:41;;;;;;;6.10;2.10;;;;;;;3.28;100.00;100497.31;4951567;28;20036;-78
2022/04/09 06:02:13;;;;;;;6.95;1.88;;;;;;;3.32;100.00;100493.94;4957154;28;24303;-79
2022/04/09 06:04:42;;;;;;;10.70;2.27;;;;;;;3.36;100.00;100500.13;4938816;29;20067;-77
2022/04/09 06:07:13;;;;;;;14.30;2.55;;;;;;;3.40;100.00;100499.38;4946235;28;20290;-78
2022/04/09 06:09:55;;;;;;;9.13;2.13;;;;;;;3.45;100.00;100512.53;4923150;28;20038;-77
2022/04/09 06:12:24;;;;;;;6.97;1.90;;;;;;;3.45;100.00;100536.84;4950081;28;20574;-78
2022/04/09 06:15:02;;;;;;;8.73;1.98;;;;;;;3.47;100.00;100550.78;4938749;28;20380;-77
2022/04/09 06:17:40;;;;;;;12.05;2.05;;;;;;;3.50;100.00;100524.84;4933237;29;20536;-78
2022/04/09 06:20:09;;;;;;;3.50;1.35;;;;;;;3.49;100.00;100520.44;4969169;28;20062;-77
2022/04/09 06:22:42;;;;;;;10.25;1.88;;;;;;;3.48;100.00;100526.53;4968541;28;20053;-78
2022/04/09 06:25:11;;;;;;;12.25;2.08;;;;;;;3.46;100.00;100535.13;4950188;28;20042;-77
2022/04/09 06:27:41;;;;;;;9.43;1.85;;;;;;;3.44;100.00;100539.41;4963015;28;20035;-78
2022/04/09 06:30:13;;;;;;;5.47;1.40;;;;;;;3.42;100.00;100533.28;4959731;28;20412;-77
2022/04/09 06:32:48;;;;;;;9.07;1.65;;;;;;;3.42;100.00;100536.78;4940763;28;20054;-78
2022/04/09 06:35:18;;;;;;;13.38;2.67;;;;;;;3.46;100.00;100542.94;4929927;28;20054;-77
2022/04/09 06:37:46;;;;;;;10.38;2.17;;;;;;;3.57;100.00;100548.44;4953210;28;20062;-77
2022/04/09 06:40:18;;;;;;;5.25;1.60;;;;;;;3.76;100.00;100545.47;4917982;28;21808;-77
2022/04/09 06:42:46;;;;;;;10.90;2.05;;;;;;;4.03;100.00;100553.13;4918664;29;20043;-78
2022/04/09 06:45:41;;;;;;;7.68;2.17;;;;;;;4.45;100.00;100548.91;4953700;28;20078;-77
2022/04/09 06:48:27;;;;;;;12.13;1.90;;;;;;;4.80;100.00;100546.19;4945409;28;20051;-78
2022/04/09 06:51:28;;;;;;;7.55;2.20;;;;;;;5.20;100.00;100552.28;4955311;28;20060;-78
2022/04/09 06:54:04;;;;;;;11.60;2.55;;;;;;;5.82;100.00;100544.75;4949329;28;20050;-77
2022/04/09 06:56:32;;;;;;;10.75;2.33;;;;;;;6.37;100.00;100555.28;4938606;28;20511;-77
2022/04/09 06:59:01;;;;;;;8.65;2.30;;;;;;;6.94;100.00;100557.84;4947895;28;20512;-77
2022/04/09 07:01:30;;;;;;;12.55;2.00;;;;;;;7.16;100.00;100561.59;4963386;28;20054;-79
2022/04/09 07:04:00;;;;;;;9.75;1.95;;;;;;;7.10;100.00;100577.25;4945235;28;20535;-77
2022/04/09 07:06:30;;;;;;;8.57;1.83;;;;;;;7.03;100.00;100582.44;4924971;28;20590;-77
2022/04/09 07:08:58;;;;;;;6.97;2.08;;;;;;;7.09;100.00;100581.63;4961801;28;20046;-77
2022/04/09 07:11:28;;;;;;;10.48;2.15;;;;;;;7.22;100.00;100580.00;4940217;28;20269;-77
2022/04/09 07:13:57;;;;;;;8.88;2.33;;;;;;;7.26;100.00;100583.56;4944220;28;20508;-78
2022/04/09 07:16:25;;;;;;;8.38;1.55;;;;;;;7.25;100.00;100587.94;4946765;28;20139;-78
2022/04/09 07:18:54;;;;;;;10.57;2.47;;;;;;;7.21;100.00;100591.38;4954108;28;20043;-77
2022/04/09 07:21:22;;;;;;;12.02;1.70;;;;;;;7.19;100.00;100593.09;4940718;28;20405;-78
2022/04/09 07:23:51;;;;;;;12.43;2.03;;;;;;;7.09;100.00;100597.34;4978703;28;20054;-77
2022/04/09 07:26:20;;;;;;;9.43;1.85;;;;;;;7.08;100.00;100603.44;4978107;28;20133;-77
2022/04/09 07:28:49;;;;;;;11.20;1.85;;;;;;;7.09;100.00;100599.06;4936294;28;20051;-80
2022/04/09 07:31:18;;;;;;;10.05;2.22;;;;;;;7.19;100.00;100614.06;4947065;28;20066;-78
2022/04/09 07:33:46;;;;;;;11.48;2.45;;;;;;;7.23;100.00;100610.63;4952238;28;20046;-79
2022/04/09 07:36:15;;;;;;;8.27;1.90;;;;;;;7.15;100.00;100607.03;4953070;28;20039;-79
2022/04/09 07:38:43;;;;;;;8.82;2.58;;;;;;;7.01;100.00;100617.31;4970241;28;20160;-78
2022/04/09 07:41:12;;;;;;;14.60;3.92;;;;;;;6.88;100.00;100624.13;4952795;28;20192;-78
2022/04/09 07:43:40;;;;;;;13.43;2.65;;;;;;;6.71;100.00;100625.59;4942492;28;20050;-78
2022/04/09 07:46:08;;;;;;;7.88;1.92;;;;;;;6.48;100.00;100636.56;4956820;28;20188;-78
2022/04/09 07:48:37;;;;;;;10.82;2.50;;;;;;;6.35;100.00;100642.47;4956701;28;20045;-77
2022/04/09 07:51:06;;;;;;;10.07;1.83;;;;;;;6.44;100.00;100642.63;4947487;28;20275;-78
2022/04/09 07:53:34;;;;;;;7.57;2.50;;;;;;;6.62;100.00;100637.69;4969456;28;20070;-78
2022/04/09 07:56:12;;;;;;;11.30;2.13;;;;;;;6.89;100.00;100632.84;4936577;28;20035;-78
2022/04/09 07:58:42;;;;;;;15.60;2.35;;;;;;;7.16;100.00;100648.94;4957243;28;20039;-78
2022/04/09 08:01:11;;;;;;;11.65;2.25;;;;;;;7.16;100.00;100643.72;4953171;28;20047;-78
2022/04/09 08:03:39;;;;;;;7.35;2.00;;;;;;;7.20;100.00;100647.25;4958677;28;20055;-78
2022/04/09 08:06:08;;;;;;;7.85;2.55;;;;;;;7.34;100.00;100656.19;4967362;28;20160;-79
2022/04/09 08:08:36;;;;;;;10.40;2.30;;;;;;;7.50;100.00;100662.50;4927782;28;20059;-77
2022/04/09 08:11:05;;;;;;;9.25;2.70;;;;;;;7.68;100.00;100666.25;4930005;28;20558;-77
2022/04/09 08:13:35;;;;;;;9.23;2.00;;;;;;;7.83;100.00;100661.19;4942832;28;20050;-77
2022/04/09 08:16:03;;;;;;;12.82;2.75;;;;;;;7.93;100.00;100670.91;4924387;28;20236;-77
2022/04/09 08:18:32;;;;;;;9.30;2.42;;;;;;;8.02;100.00;100671.88;4973473;28;20373;-77
2022/04/09 08:21:04;;;;;;;9.10;2.38;;;;;;;8.07;100.00;100685.91;4938286;28;20046;-77
2022/04/09 08:23:33;;;;;;;11.05;2.53;;;;;;;8.12;100.00;100673.72;4955658;28;20403;-77
2022/04/09 08:26:02;;;;;;;11.48;2.38;;;;;;;8.04;100.00;100681.53;4940738;28;20051;-78
2022/04/09 08:28:31;;;;;;;11.40;2.83;;;;;;;7.87;100.00;100693.56;4931043;28;20043;-77
2022/04/09 08:31:00;;;;;;;8.05;2.45;;;;;;;7.63;100.00;100696.78;4936216;28;20049;-77
2022/04/09 08:33:28;;;;;;;3.33;1.45;;;;;;;7.29;100.00;100694.56;4934089;28;21315;-77
2022/04/09 08:35:58;;;;;;;6.28;1.83;;;;;;;6.95;100.00;100709.78;4958595;28;20047;-77
2022/04/09 08:38:26;;;;;;;4.00;1.83;;;;;;;6.69;100.00;100704.16;4942627;28;20058;-77
2022/04/09 08:41:03;;;;;;;5.70;2.05;;;;;;;6.39;100.00;100707.09;4965569;28;20043;-78
2022/04/09 08:43:32;;;;;;;7.35;1.77;;;;;;;6.24;100.00;100713.81;4938531;28;20054;-78
2022/04/09 08:46:02;;;;;;;6.70;1.70;;;;;;;6.11;100.00;100722.28;4963187;28;20499;-78
2022/04/09 08:48:31;;;;;;;6.27;2.33;;;;;;;6.06;100.00;100729.16;4948357;28;20062;-78
2022/04/09 08:51:02;;;;;;;6.72;2.20;;;;;;;6.24;100.00;100734.75;4960959;28;20298;-78
2022/04/09 08:53:55;;;;;;;9.85;1.42;;;;;;;6.69;100.00;100737.28;4952619;28;20051;-79
2022/04/09 08:56:24;;;;;;;9.25;1.90;;;;;;;7.09;100.00;100753.66;4960555;28;20599;-78
2022/04/09 08:58:52;;;;;;;7.80;1.90;;;;;;;7.08;100.00;100780.72;4932921;28;20046;-78
2022/04/09 09:01:21;;;;;;;5.20;1.08;;;;;;;6.58;100.00;100799.97;4977130;28;20043;-78
2022/04/09 09:03:52;;;;;;;4.43;1.42;;;;;;;6.11;100.00;100803.41;4920858;28;20050;-78
2022/04/09 09:06:40;;;;;;;4.60;1.40;;;;;;;5.60;100.00;100807.50;4961985;28;20319;-79
2022/04/09 09:09:24;;;;;;;5.40;1.63;;;;;;;5.26;100.00;100805.81;4935001;28;20054;-78
2022/04/09 09:11:57;;;;;;;8.70;1.73;;;;;;;5.01;100.00;100797.38;4962405;28;20034;-78
2022/04/09 09:14:36;;;;;;;5.65;1.60;;;;;;;4.88;100.00;100792.72;4957593;28;20267;-78
2022/04/09 09:17:04;;;;;;;1.73;1.00;;;;;;;4.87;100.00;100790.91;4966404;28;20102;-78
2022/04/09 09:19:45;;;;;;;1.05;0.80;;;;;;;4.88;100.00;100793.56;4932391;28;20255;-78
2022/04/09 09:22:14;;;;;;;;;;;;;;;4.94;100.00;100789.38;4955416;28;20035;-76
2022/04/09 09:24:43;;;;;;;4.25;0.93;;;;;;;4.98;100.00;100789.47;4954333;28;20372;-79
2022/04/09 09:27:11;;;;;;;1.85;1.35;;;;;;;5.04;100.00;100794.84;4929857;28;20074;-79
2022/04/09 09:29:42;;;;;;;8.85;1.55;;;;;;;5.16;100.00;100793.38;4957971;28;20055;-77
2022/04/09 09:32:24;;;;;;;7.45;1.38;;;;;;;5.36;100.00;100794.72;4944215;28;20039;-77
2022/04/09 09:34:57;;;;;;;7.20;1.48;;;;;;;5.66;100.00;100785.84;4915166;28;20061;-77
2022/04/09 09:37:28;;;;;;;11.07;1.70;;;;;;;5.92;100.00;100794.25;4916586;28;20336;-78
2022/04/09 09:39:57;;;;;;;6.07;1.73;;;;;;;6.16;100.00;100786.06;4924892;28;20508;-79
2022/04/09 09:42:26;;;;;;;6.25;1.40;;;;;;;6.42;100.00;100788.28;4906147;28;20027;-78
2022/04/09 09:44:56;;;;;;;;;;;;;;;6.63;100.00;100791.34;4924014;28;20058;-78
2022/04/09 09:47:25;;;;;;;8.60;1.67;;;;;;;6.82;100.00;100789.03;4905760;28;19922;-78
2022/04/09 09:49:58;;;;;;;7.20;1.75;;;;;;;7.02;100.00;100792.88;4890203;29;20055;-78
2022/04/09 09:52:36;;;;;;;6.55;1.80;;;;;;;7.30;100.00;100787.22;4888778;29;20047;-79
2022/04/09 09:55:10;;;;;;;10.82;2.03;;;;;;;7.58;100.00;100796.34;4916578;28;20055;-79
2022/04/09 09:57:40;;;;;;;12.57;2.30;;;;;;;7.76;100.00;100786.13;4948487;28;20044;-78
2022/04/09 10:00:12;;;;;;;16.30;3.03;;;;;;;7.75;100.00;100800.13;4974026;28;20059;-78
2022/04/09 10:02:43;;;;;;;14.82;2.90;;;;;;;7.59;100.00;100801.63;4957027;28;20404;-77
2022/04/09 10:05:27;;;;;;;13.75;2.95;;;;;;;7.48;100.00;100805.81;4932675;28;20051;-77
2022/04/09 10:07:56;;;;;;;7.57;2.50;;;;;;;7.39;100.00;100811.81;4947877;28;20400;-78
2022/04/09 10:10:27;;;;;;;13.95;2.40;;;;;;;7.41;100.00;100810.09;4918324;28;20051;-78
2022/04/09 10:13:00;;;;;;;10.50;2.33;;;;;;;7.44;100.00;100809.25;4955722;28;20038;-78
2022/04/09 10:15:31;;;;;;;10.60;2.95;;;;;;;7.44;100.00;100822.38;4957162;28;20681;-78
2022/04/09 10:18:01;;;;;;;11.43;2.25;;;;;;;7.37;100.00;100825.75;4958188;28;20119;-78
2022/04/09 10:20:30;;;;;;;10.40;2.22;;;;;;;7.36;100.00;100830.13;4912304;28;20051;-78
2022/04/09 10:23:01;;;;;;;7.28;2.30;;;;;;;7.35;100.00;100843.19;4967678;28;20046;-78
2022/04/09 10:25:40;;;;;;;3.88;1.23;;;;;;;7.16;100.00;100860.34;4941862;28;20635;-78
2022/04/09 10:28:10;;;;;;;4.78;1.20;;;;;;;6.92;100.00;100861.69;4934987;28;20515;-78
2022/04/09 10:30:40;;;;;;;6.80;1.50;;;;;;;6.72;100.00;100863.94;4957091;28;20050;-78
2022/04/09 10:33:23;;;;;;;6.15;1.10;;;;;;;6.54;100.00;100874.03;4928348;28;20404;-78
2022/04/09 10:35:52;;;;;;;3.00;1.20;;;;;;;6.28;100.00;100892.72;4957916;28;20058;-78
2022/04/09 10:38:24;;;;;;;3.42;1.10;;;;;;;6.02;100.00;100898.25;4924386;28;20725;-78
2022/04/09 10:40:55;;;;;;;1.10;0.73;;;;;;;5.79;100.00;100879.38;4950995;28;20039;-79
2022/04/09 10:43:23;;;;;;;0.77;0.63;;;;;;;5.73;100.00;100873.13;4951946;28;20165;-78
2022/04/09 10:46:01;;;;;;;0.73;0.73;;;;;;;5.84;100.00;100876.88;4957826;28;20499;-79
2022/04/09 10:48:34;;;;;;;1.90;0.80;;;;;;;5.98;100.00;100878.13;4945388;28;20050;-78
2022/04/09 10:51:13;;;;;;;0.60;0.60;;;;;;;6.10;100.00;100884.47;4965949;28;20042;-79
2022/04/09 10:53:44;;;;;;;1.00;0.80;;;;;;;6.28;100.00;100873.53;4936717;28;20408;-79
2022/04/09 10:56:26;;;;;;;2.78;0.98;;;;;;;6.48;100.00;100885.25;4942159;28;20047;-79
2022/04/09 10:59:04;;;;;;;3.08;0.75;;;;;;;6.65;100.00;100877.75;4965392;28;20499;-78
2022/04/09 11:01:51;;;;;;;3.38;1.15;;;;;;;6.82;100.00;100889.47;4951709;28;20348;-78
2022/04/09 11:04:28;;;;;;;3.67;1.48;;;;;;;7.04;100.00;100882.00;4967282;28;20055;-79
2022/04/09 11:07:04;;;;;;;6.97;1.40;;;;;;;7.23;100.00;100885.81;4945086;28;20051;-78
2022/04/09 11:09:44;;;;;;;5.60;1.52;;;;;;;7.38;100.00;100878.22;4960213;28;20051;-78
2022/04/09 11:12:14;;;;;;;6.95;1.40;;;;;;;7.58;100.00;100881.16;4944561;28;20271;-78
2022/04/09 11:14:49;;;;;;;3.90;1.40;;;;;;;7.72;100.00;100891.88;4952826;28;20039;-78
2022/04/09 11:17:24;;;;;;;6.40;1.98;;;;;;;7.74;100.00;100903.25;4949285;28;20043;-79
2022/04/09 11:19:54;;;;;;;5.22;1.70;;;;;;;7.74;100.00;100902.38;4967494;28;20046;-79
2022/04/09 11:22:31;;;;;;;6.53;2.03;;;;;;;7.72;100.00;100896.25;4953114;28;20054;-78
2022/04/09 11:25:00;;;;;;;8.20;1.75;;;;;;;7.66;100.00;100904.03;4931366;28;20046;-78
2022/04/09 11:27:32;;;;;;;5.55;1.52;;;;;;;7.64;100.00;100903.09;4956803;28;20058;-78
2022/04/09 11:30:03;;;;;;;10.32;2.20;;;;;;;7.75;100.00;100904.13;4928000;28;20061;-78
2022/04/09 11:32:35;;;;;;;9.63;2.47;;;;;;;7.93;100.00;100904.44;4967949;28;20644;-79
2022/04/09 11:35:13;;;;;;;5.57;2.15;;;;;;;7.98;100.00;100913.25;4955068;28;20058;-79
2022/04/09 11:37:50;;;;;;;9.40;2.28;;;;;;;8.07;100.00;100915.16;4951538;28;21809;-77
2022/04/09 11:40:22;;;;;;;12.43;2.15;;;;;;;8.20;100.00;100913.56;4947371;28;20046;-78
2022/04/09 11:42:52;;;;;;;10.32;2.63;;;;;;;8.19;100.00;100928.44;4929191;28;20055;-78
2022/04/09 11:45:28;;;;;;;8.45;2.35;;;;;;;8.07;100.00;100922.13;4945924;28;20610;-78